Time;durP1;ratioP1;P1;durP2;ratioP2;P2;SDS_P1;SDS_P2;PMS_P1;PMS_P2;Temp;Humidity;BMP_temperature;BMP_pressure;BME280_temperature;BME280_humidity;BME280_pressure;Samples;Min_cycle;Max_cycle;Signal;HPM_P1;HPM_P2
2021/09/09 00:00:30;;;;;;;16.60;10.00;;;;;;;14.61;82.46;100730.47;110669;1207;61930;-80
2021/09/09 00:02:57;;;;;;;15.20;9.70;;;;;;;14.57;82.69;100728.83;110666;1207;61876;-80
2021/09/09 00:05:24;;;;;;;17.70;10.70;;;;;;;14.54;82.84;100728.63;110702;1199;76528;-80
2021/09/09 00:07:51;;;;;;;16.50;10.80;;;;;;;14.53;83.22;100725.11;110741;1203;62075;-81
2021/09/09 00:10:18;;;;;;;16.30;9.90;;;;;;;14.52;83.44;100718.58;110582;1203;72649;-80
2021/09/09 00:12:45;;;;;;;18.80;10.30;;;;;;;14.51;83.38;100721.77;110707;1200;61936;-81
2021/09/09 00:15:12;;;;;;;16.30;9.80;;;;;;;14.49;83.42;100716.71;110866;1198;61936;-81
2021/09/09 00:17:39;;;;;;;14.60;9.80;;;;;;;14.47;84.00;100716.55;110878;1207;76809;-81
2021/09/09 00:20:10;;;;;;;18.20;10.00;;;;;;;14.44;83.99;100715.35;111053;1206;70993;-80
2021/09/09 00:22:38;;;;;;;19.80;11.10;;;;;;;14.41;84.17;100711.98;110829;1207;72388;-80
2021/09/09 00:25:05;;;;;;;17.00;10.40;;;;;;;14.41;84.34;100714.73;110646;1198;62534;-80
2021/09/09 00:27:31;;;;;;;17.60;11.10;;;;;;;14.38;84.46;100714.26;110717;1205;61825;-82
2021/09/09 00:29:58;;;;;;;16.70;10.70;;;;;;;14.35;84.55;100710.75;110740;1206;61895;-81
2021/09/09 00:32:24;;;;;;;15.10;10.10;;;;;;;14.31;84.75;100707.50;110693;1199;61899;-82
2021/09/09 00:34:52;;;;;;;17.50;10.00;;;;;;;14.28;84.81;100705.56;110807;1207;61921;-81
2021/09/09 00:37:19;;;;;;;17.50;10.00;;;;;;;14.24;85.37;100701.19;110874;1205;62932;-80
2021/09/09 00:39:46;;;;;;;18.20;10.90;;;;;;;14.23;85.69;100699.55;110877;1205;61786;-80
2021/09/09 00:42:12;;;;;;;19.40;11.30;;;;;;;14.24;86.03;100695.73;110822;1207;75685;-81
2021/09/09 00:44:39;;;;;;;19.60;11.40;;;;;;;14.23;85.96;100691.95;110787;1205;61994;-81
2021/09/09 00:47:11;;;;;;;20.30;10.50;;;;;;;14.21;85.68;100688.12;110770;1207;72493;-81
2021/09/09 00:49:41;;;;;;;17.20;11.30;;;;;;;14.14;85.61;100684.56;110738;1209;62065;-82
2021/09/09 00:52:09;;;;;;;18.20;11.00;;;;;;;14.09;85.93;100683.94;111089;1207;63219;-81
2021/09/09 00:54:36;;;;;;;18.60;10.90;;;;;;;14.04;85.88;100681.56;110800;1208;75183;-82
2021/09/09 00:57:04;;;;;;;17.40;10.70;;;;;;;13.98;86.07;100683.06;110831;1205;71779;-81
2021/09/09 00:59:35;;;;;;;20.40;11.10;;;;;;;13.92;86.27;100686.02;110809;1202;72414;-82
2021/09/09 01:02:03;;;;;;;18.50;12.10;;;;;;;13.86;86.59;100687.75;112110;1198;62113;-80
2021/09/09 01:04:30;;;;;;;19.70;12.00;;;;;;;13.83;86.93;100685.57;111357;1200;61883;-81
2021/09/09 01:06:57;;;;;;;21.30;11.50;;;;;;;13.79;87.00;100684.42;110894;1207;62807;-82
2021/09/09 01:09:23;;;;;;;18.60;11.70;;;;;;;13.77;87.06;100684.17;110828;1203;72391;-80
2021/09/09 01:11:50;;;;;;;17.40;11.00;;;;;;;13.74;87.16;100685.10;110658;1198;61897;-81
2021/09/09 01:14:18;;;;;;;19.10;11.90;;;;;;;13.71;87.29;100684.42;110942;1203;63193;-80
2021/09/09 01:16:47;;;;;;;21.30;11.50;;;;;;;13.68;87.41;100684.44;110760;1206;61873;-81
2021/09/09 01:19:15;;;;;;;16.60;10.90;;;;;;;13.66;87.64;100681.46;111010;1205;74721;-80
2021/09/09 01:21:41;;;;;;;20.30;11.70;;;;;;;13.65;87.93;100682.09;111094;1205;72022;-80
2021/09/09 01:24:09;;;;;;;20.70;11.40;;;;;;;13.66;87.97;100686.85;110762;1203;72369;-80
2021/09/09 01:26:57;;;;;;;19.20;11.50;;;;;;;13.64;87.78;100681.92;110716;1207;61875;-81
2021/09/09 01:29:27;;;;;;;16.70;11.50;;;;;;;13.60;87.86;100673.90;110622;1207;61873;-82
2021/09/09 01:31:55;;;;;;;16.10;9.90;;;;;;;13.60;88.45;100672.46;110852;1206;76452;-81
2021/09/09 01:34:23;;;;;;;17.00;10.20;;;;;;;13.58;88.10;100672.41;110782;1205;70896;-79
2021/09/09 01:36:50;;;;;;;20.10;13.00;;;;;;;13.53;88.21;100671.47;110734;1207;72465;-81
2021/09/09 01:39:16;;;;;;;17.00;10.90;;;;;;;13.49;88.24;100670.30;110586;1208;61911;-80
2021/09/09 01:41:43;;;;;;;15.80;10.60;;;;;;;13.45;88.32;100673.42;111079;1198;62757;-81
2021/09/09 01:44:09;;;;;;;16.50;10.90;;;;;;;13.43;88.66;100674.27;110571;1208;61873;-82
2021/09/09 01:46:36;;;;;;;19.60;11.10;;;;;;;13.41;88.87;100674.52;110576;1207;61870;-80
2021/09/09 01:49:03;;;;;;;16.70;11.70;;;;;;;13.40;89.11;100666.67;110663;1203;62005;-79
2021/09/09 01:51:30;;;;;;;19.70;11.90;;;;;;;13.41;89.29;100666.77;110800;1205;61927;-81
2021/09/09 01:53:56;;;;;;;19.70;11.30;;;;;;;13.41;89.25;100666.48;110803;1198;61908;-81
2021/09/09 01:56:23;;;;;;;18.50;12.50;;;;;;;13.41;88.97;100662.42;110757;1206;61828;-81
2021/09/09 01:58:50;;;;;;;17.50;11.90;;;;;;;13.40;89.05;100665.27;110738;1207;61914;-80
2021/09/09 02:01:17;;;;;;;20.00;12.20;;;;;;;13.38;89.14;100667.11;110924;1206;72122;-81
2021/09/09 02:03:44;;;;;;;18.70;11.90;;;;;;;13.35;89.23;100663.55;110949;1206;62935;-81
2021/09/09 02:06:11;;;;;;;20.30;12.40;;;;;;;13.34;89.69;100658.91;110752;1205;61800;-81
2021/09/09 02:08:37;;;;;;;19.10;12.20;;;;;;;13.34;89.59;100660.60;110788;1208;76455;-83
2021/09/09 02:11:04;;;;;;;19.20;12.10;;;;;;;13.33;89.33;100655.99;110734;1203;71666;-83
2021/09/09 02:13:31;;;;;;;18.60;12.30;;;;;;;13.32;89.59;100655.45;110670;1203;72563;-80
2021/09/09 02:15:57;;;;;;;23.10;11.80;;;;;;;13.30;89.58;100652.70;110890;1198;61904;-82
2021/09/09 02:18:23;;;;;;;17.80;11.90;;;;;;;13.27;89.46;100659.85;110794;1206;61873;-81
2021/09/09 02:20:50;;;;;;;19.00;11.70;;;;;;;13.23;89.42;100661.06;110818;1205;61800;-81
2021/09/09 02:23:16;;;;;;;19.70;11.40;;;;;;;13.20;89.58;100658.34;110905;1207;61831;-82
2021/09/09 02:25:43;;;;;;;19.20;13.00;;;;;;;13.15;89.65;100652.52;110723;1203;61966;-81
2021/09/09 02:28:10;;;;;;;19.50;12.40;;;;;;;13.12;89.76;100650.65;110687;1206;61949;-82
2021/09/09 02:30:37;;;;;;;24.20;13.20;;;;;;;13.09;90.03;100647.42;110782;1203;62029;-82
2021/09/09 02:33:03;;;;;;;19.50;13.40;;;;;;;13.06;90.32;100648.51;110899;1198;75531;-79
2021/09/09 02:35:30;;;;;;;20.60;12.90;;;;;;;13.06;90.38;100649.24;110890;1199;70956;-81
2021/09/09 02:37:57;;;;;;;17.50;11.40;;;;;;;13.04;89.98;100647.84;110708;1201;72500;-82
2021/09/09 02:40:23;;;;;;;19.90;12.90;;;;;;;13.02;90.04;100648.30;110643;1205;61927;-81
2021/09/09 02:42:50;;;;;;;19.20;12.80;;;;;;;12.99;90.23;100648.29;110693;1206;61876;-82
2021/09/09 02:45:16;;;;;;;18.30;11.50;;;;;;;12.99;90.29;100651.52;110802;1205;61786;-80
2021/09/09 02:47:43;;;;;;;18.20;11.20;;;;;;;12.99;90.56;100643.17;110677;1206;62012;-80
2021/09/09 02:50:11;;;;;;;19.90;12.20;;;;;;;12.99;90.56;100639.98;110748;1206;61837;-81
2021/09/09 02:52:39;;;;;;;24.70;12.70;;;;;;;12.99;90.79;100637.88;110806;1205;61895;-81
2021/09/09 02:55:06;;;;;;;22.10;12.50;;;;;;;12.98;90.86;100639.05;110795;1206;61895;-81
2021/09/09 02:57:33;;;;;;;22.00;13.40;;;;;;;12.97;90.62;100636.31;110730;1205;75468;-79
2021/09/09 02:59:59;;;;;;;18.80;12.40;;;;;;;12.96;90.70;100634.17;110859;1206;71253;-80
2021/09/09 03:02:26;;;;;;;23.20;12.90;;;;;;;12.94;90.69;100630.60;110803;1199;62666;-81
2021/09/09 03:04:53;;;;;;;20.00;12.60;;;;;;;12.93;90.50;100632.39;110913;1208;62724;-82
2021/09/09 03:07:21;;;;;;;23.00;14.00;;;;;;;12.90;90.24;100625.68;110731;1205;62389;-80
2021/09/09 03:09:47;;;;;;;18.60;12.40;;;;;;;12.86;90.24;100620.48;110888;1206;74939;-80
2021/09/09 03:12:14;;;;;;;21.70;12.70;;;;;;;12.83;90.76;100613.88;110725;1203;72058;-80
2021/09/09 03:14:41;;;;;;;21.90;13.40;;;;;;;12.81;90.93;100612.42;110777;1205;61895;-80
2021/09/09 03:17:07;;;;;;;25.60;14.80;;;;;;;12.79;91.04;100612.12;110815;1205;61942;-83
2021/09/09 03:19:34;;;;;;;21.10;13.30;;;;;;;12.78;91.28;100607.77;110665;1205;61843;-81
2021/09/09 03:22:00;;;;;;;22.50;13.90;;;;;;;12.77;91.26;100604.41;110674;1205;61872;-82
2021/09/09 03:24:27;;;;;;;21.70;13.70;;;;;;;12.74;91.51;100598.34;110863;1206;61807;-82
2021/09/09 03:26:53;;;;;;;22.40;13.10;;;;;;;12.72;91.49;100593.50;110927;1206;61872;-80
2021/09/09 03:29:20;;;;;;;24.50;13.40;;;;;;;12.71;91.59;100596.46;110680;1203;62038;-82
2021/09/09 03:31:46;;;;;;;21.00;14.10;;;;;;;12.69;91.66;100593.21;110907;1206;61920;-81
2021/09/09 03:34:13;;;;;;;21.70;14.80;;;;;;;12.64;91.60;100590.86;110644;1206;75276;-83
2021/09/09 03:36:39;;;;;;;20.10;11.90;;;;;;;12.58;91.55;100588.46;110789;1205;61867;-81
2021/09/09 03:39:06;;;;;;;20.20;14.50;;;;;;;12.51;91.86;100587.34;110785;1198;61861;-81
2021/09/09 03:41:33;;;;;;;24.40;14.50;;;;;;;12.48;92.27;100589.71;110737;1205;61897;-82
2021/09/09 03:43:59;;;;;;;22.70;14.10;;;;;;;12.44;92.44;100590.05;110911;1207;62037;-83
2021/09/09 03:46:26;;;;;;;22.60;13.60;;;;;;;12.41;92.70;100586.33;111042;1205;61857;-81
2021/09/09 03:48:52;;;;;;;25.40;15.60;;;;;;;12.39;92.65;100586.39;110959;1206;71951;-81
2021/09/09 03:51:19;;;;;;;27.30;15.00;;;;;;;12.36;92.77;100583.79;110834;1206;61901;-82
2021/09/09 03:53:46;;;;;;;19.50;12.60;;;;;;;12.33;93.01;100585.02;110641;1205;61875;-82
2021/09/09 03:56:12;;;;;;;23.40;13.80;;;;;;;12.30;92.99;100581.77;111259;1205;61814;-83
2021/09/09 03:58:39;;;;;;;24.90;14.50;;;;;;;12.29;93.04;100574.55;110667;1205;61858;-81
2021/09/09 04:01:05;;;;;;;22.20;13.00;;;;;;;12.26;93.21;100576.68;110711;1207;61875;-81
2021/09/09 04:03:32;;;;;;;22.10;13.10;;;;;;;12.22;93.19;100576.41;110746;1206;62008;-81
2021/09/09 04:05:58;;;;;;;22.30;13.90;;;;;;;12.17;93.17;100575.41;110618;1207;62631;-81
2021/09/09 04:08:29;;;;;;;23.50;16.10;;;;;;;12.16;93.50;100576.27;111230;1206;61907;-81
2021/09/09 04:10:56;;;;;;;22.50;14.50;;;;;;;12.14;93.54;100572.05;110931;1205;75647;-82
2021/09/09 04:13:22;;;;;;;19.90;13.80;;;;;;;12.12;93.33;100574.05;110800;1205;70940;-81
2021/09/09 04:15:49;;;;;;;21.60;12.90;;;;;;;12.08;93.35;100575.08;110790;1206;61786;-81
2021/09/09 04:18:15;;;;;;;20.20;14.80;;;;;;;12.05;93.50;100571.10;110716;1205;61891;-81
2021/09/09 04:20:42;;;;;;;22.80;15.50;;;;;;;12.00;93.33;100572.53;110665;1205;61855;-81
2021/09/09 04:23:09;;;;;;;23.50;13.60;;;;;;;11.97;93.82;100573.38;110829;1205;75465;-81
2021/09/09 04:25:35;;;;;;;24.50;14.70;;;;;;;11.95;93.90;100575.41;110605;1207;72153;-80
2021/09/09 04:28:02;;;;;;;25.30;15.20;;;;;;;11.96;94.08;100571.41;110655;1203;61909;-81
2021/09/09 04:30:29;;;;;;;23.90;14.80;;;;;;;11.96;93.86;100569.16;110711;1203;62882;-81
2021/09/09 04:32:55;;;;;;;22.60;13.70;;;;;;;11.96;94.08;100568.02;110868;1197;61888;-85
2021/09/09 04:35:22;;;;;;;19.90;13.40;;;;;;;11.96;93.75;100573.88;110888;1207;75689;-71
2021/09/09 04:37:48;;;;;;;23.80;14.90;;;;;;;11.95;93.69;100574.52;110659;1206;61950;-73
2021/09/09 04:40:15;;;;;;;23.90;14.20;;;;;;;11.95;93.68;100574.88;110661;1206;61822;-73
2021/09/09 04:42:41;;;;;;;22.70;13.70;;;;;;;11.98;94.09;100571.56;110568;1198;61898;-73
2021/09/09 04:45:08;;;;;;;22.10;14.50;;;;;;;12.01;94.03;100571.84;110684;1206;62027;-74
2021/09/09 04:47:36;;;;;;;22.20;13.90;;;;;;;12.03;93.79;100564.34;110570;1207;76640;-75
2021/09/09 04:50:04;;;;;;;22.40;14.60;;;;;;;12.05;93.80;100559.13;110560;1205;72139;-75
2021/09/09 04:52:31;;;;;;;23.10;14.50;;;;;;;12.08;93.76;100558.09;110698;1207;72481;-75
2021/09/09 04:54:58;;;;;;;21.10;13.30;;;;;;;12.08;93.43;100552.45;110633;1205;61907;-74
2021/09/09 04:57:24;;;;;;;23.20;13.20;;;;;;;12.07;93.22;100552.39;110667;1206;61914;-74
2021/09/09 04:59:51;;;;;;;26.50;15.70;;;;;;;12.05;93.37;100547.27;110486;1205;61860;-74
2021/09/09 05:02:17;;;;;;;23.60;12.80;;;;;;;12.04;93.53;100545.24;110688;1205;61893;-72
2021/09/09 05:04:44;;;;;;;24.80;14.50;;;;;;;12.02;93.66;100544.94;110544;1205;61823;-76
2021/09/09 05:07:10;;;;;;;23.20;15.00;;;;;;;12.00;93.66;100548.39;110595;1206;61822;-75
2021/09/09 05:09:37;;;;;;;22.70;14.10;;;;;;;11.97;93.91;100545.33;110739;1205;61874;-74
2021/09/09 05:12:04;;;;;;;20.70;13.90;;;;;;;11.95;94.02;100549.60;110748;1206;62003;-74
2021/09/09 05:14:30;;;;;;;23.00;14.20;;;;;;;11.93;94.24;100555.10;110641;1206;70876;-76
2021/09/09 05:16:57;;;;;;;25.80;14.70;;;;;;;11.95;94.43;100556.52;110615;1206;61882;-74
2021/09/09 05:19:23;;;;;;;28.40;16.00;;;;;;;11.98;94.50;100555.24;110703;1205;63038;-74
2021/09/09 05:21:53;;;;;;;26.60;14.10;;;;;;;12.01;94.78;100549.20;110811;1206;61789;-75
2021/09/09 05:24:19;;;;;;;23.50;13.90;;;;;;;12.04;94.97;100545.65;110946;1203;72926;-73
2021/09/09 05:26:46;;;;;;;24.60;14.50;;;;;;;12.07;94.98;100541.67;110702;1205;62737;-73
2021/09/09 05:29:12;;;;;;;26.40;14.50;;;;;;;12.11;94.88;100537.83;110538;1205;61844;-74
2021/09/09 05:31:39;;;;;;;21.70;11.10;;;;;;;12.12;94.74;100539.23;110486;1205;61979;-73
2021/09/09 05:34:05;;;;;;;22.10;13.70;;;;;;;12.12;94.56;100539.64;110625;1206;62043;-75
2021/09/09 05:36:33;;;;;;;24.70;14.10;;;;;;;12.14;94.51;100535.92;110916;1206;75292;-76
2021/09/09 05:39:00;;;;;;;22.90;13.00;;;;;;;12.16;94.55;100536.52;110730;1205;71042;-75
2021/09/09 05:41:26;;;;;;;25.00;15.30;;;;;;;12.19;94.44;100539.67;110709;1207;61793;-75
2021/09/09 05:43:53;;;;;;;22.00;13.20;;;;;;;12.22;94.51;100538.06;110751;1200;61875;-75
2021/09/09 05:46:19;;;;;;;23.70;14.80;;;;;;;12.27;94.37;100541.02;110644;1206;61886;-75
2021/09/09 05:48:46;;;;;;;20.60;13.50;;;;;;;12.33;94.48;100543.41;110645;1206;75549;-73
2021/09/09 05:51:13;;;;;;;22.50;13.80;;;;;;;12.38;94.55;100543.95;110754;1205;62324;-74
2021/09/09 05:53:39;;;;;;;23.30;15.20;;;;;;;12.47;94.51;100546.52;110611;1205;72749;-74
2021/09/09 05:56:06;;;;;;;22.70;13.90;;;;;;;12.57;94.55;100544.44;110580;1198;62736;-74
2021/09/09 05:58:32;;;;;;;22.20;13.40;;;;;;;12.68;94.55;100540.73;110541;1199;61886;-76
2021/09/09 06:00:59;;;;;;;20.00;14.20;;;;;;;12.80;94.36;100540.17;110701;1205;62391;-76
2021/09/09 06:03:29;;;;;;;23.30;14.20;;;;;;;12.91;94.32;100538.23;110744;1206;72371;-74
2021/09/09 06:06:03;;;;;;;23.20;14.70;;;;;;;13.01;94.06;100536.67;110760;1205;72590;-72
2021/09/09 06:08:35;;;;;;;27.00;13.90;;;;;;;13.14;93.98;100537.23;110599;1206;62864;-74
2021/09/09 06:11:02;;;;;;;21.70;12.90;;;;;;;13.27;93.72;100532.02;110758;1205;62284;-74
2021/09/09 06:13:28;;;;;;;20.00;12.80;;;;;;;13.39;93.43;100526.55;110634;1205;76441;-74
2021/09/09 06:15:55;;;;;;;20.50;13.10;;;;;;;13.51;93.04;100525.59;110583;1205;61895;-74
2021/09/09 06:18:21;;;;;;;19.20;11.90;;;;;;;13.62;92.92;100529.73;110530;1205;61893;-75
2021/09/09 06:20:48;;;;;;;17.90;12.70;;;;;;;13.70;92.35;100532.02;110633;1206;61872;-75
2021/09/09 06:23:14;;;;;;;25.20;14.40;;;;;;;13.79;92.29;100527.54;110587;1206;61866;-75
2021/09/09 06:25:41;;;;;;;20.70;13.70;;;;;;;13.91;91.85;100524.33;110753;1199;61847;-75
2021/09/09 06:28:09;;;;;;;21.80;13.20;;;;;;;14.04;91.76;100531.83;110566;1205;62307;-73
2021/09/09 06:30:36;;;;;;;20.50;13.00;;;;;;;14.19;91.40;100527.97;110587;1205;73738;-76
2021/09/09 06:33:03;;;;;;;21.50;13.40;;;;;;;14.31;90.71;100532.05;110628;1205;62956;-75
2021/09/09 06:35:30;;;;;;;18.30;10.30;;;;;;;14.44;90.29;100532.84;110624;1199;61811;-74
2021/09/09 06:37:57;;;;;;;18.80;12.90;;;;;;;14.54;89.81;100529.04;110704;1205;76057;-74
2021/09/09 06:40:24;;;;;;;19.60;12.90;;;;;;;14.66;89.62;100527.50;110647;1205;71793;-75
2021/09/09 06:42:50;;;;;;;31.20;16.60;;;;;;;14.77;89.11;100530.98;110666;1206;73597;-75
2021/09/09 06:45:17;;;;;;;20.20;12.40;;;;;;;14.88;88.93;100534.10;110647;1205;61880;-75
2021/09/09 06:47:44;;;;;;;19.90;13.40;;;;;;;14.97;88.33;100530.06;110593;1205;61845;-75
2021/09/09 06:50:10;;;;;;;21.00;12.00;;;;;;;15.09;87.98;100528.42;110610;1205;61845;-75
2021/09/09 06:52:38;;;;;;;23.70;13.40;;;;;;;15.19;87.70;100526.48;110539;1198;72408;-76
2021/09/09 06:55:05;;;;;;;20.80;12.20;;;;;;;15.34;87.77;100524.95;110760;1205;72628;-76
2021/09/09 06:57:32;;;;;;;17.50;11.50;;;;;;;15.49;87.28;100526.64;110528;1206;62641;-75
2021/09/09 06:59:58;;;;;;;13.80;9.90;;;;;;;15.63;86.75;100524.39;110756;1205;62617;-76
2021/09/09 07:02:25;;;;;;;19.70;12.70;;;;;;;15.75;86.39;100524.48;110792;1206;76064;-75
2021/09/09 07:04:52;;;;;;;18.90;12.80;;;;;;;15.88;86.03;100526.17;110748;1205;71402;-75
2021/09/09 07:07:19;;;;;;;19.70;12.30;;;;;;;16.01;85.56;100524.27;110538;1206;61922;-75
2021/09/09 07:09:45;;;;;;;18.90;11.60;;;;;;;16.13;84.79;100516.10;110555;1205;61904;-73
2021/09/09 07:12:12;;;;;;;20.30;12.00;;;;;;;16.26;84.62;100516.33;110577;1206;62710;-75
2021/09/09 07:14:39;;;;;;;18.00;11.70;;;;;;;16.40;84.27;100512.08;110594;1206;61875;-74
2021/09/09 07:17:05;;;;;;;17.80;11.50;;;;;;;16.53;83.92;100510.41;110579;1205;61959;-74
2021/09/09 07:19:32;;;;;;;18.10;11.60;;;;;;;16.65;83.34;100507.86;110949;1205;73596;-74
2021/09/09 07:21:59;;;;;;;17.80;12.10;;;;;;;16.79;82.74;100509.37;110711;1205;61888;-75
2021/09/09 07:24:25;;;;;;;25.50;11.60;;;;;;;16.90;82.55;100510.64;110608;1205;61858;-75
2021/09/09 07:26:52;;;;;;;17.50;11.50;;;;;;;17.04;82.14;100508.52;110578;1205;61868;-73
2021/09/09 07:29:22;;;;;;;17.90;10.00;;;;;;;17.15;81.89;100504.36;110576;1205;71304;-74
2021/09/09 07:31:49;;;;;;;14.70;10.10;;;;;;;17.27;81.34;100510.17;110489;1206;72486;-75
2021/09/09 07:34:16;;;;;;;21.30;11.10;;;;;;;17.42;81.00;100512.64;110519;1206;61929;-75
2021/09/09 07:36:43;;;;;;;16.10;9.30;;;;;;;17.56;80.11;100517.66;110626;1205;63034;-75
2021/09/09 07:39:10;;;;;;;16.20;8.90;;;;;;;17.64;78.94;100519.10;110687;1205;76265;-75
2021/09/09 07:41:36;;;;;;;15.40;10.40;;;;;;;17.66;78.04;100514.52;110633;1205;61943;-74
2021/09/09 07:44:03;;;;;;;16.80;9.70;;;;;;;17.69;78.84;100511.88;110651;1205;61796;-75
2021/09/09 07:46:30;;;;;;;32.30;15.40;;;;;;;17.79;78.81;100511.69;110656;1205;61994;-75
2021/09/09 07:48:56;;;;;;;8.80;6.30;;;;;;;17.92;78.55;100513.63;110934;1199;61937;-75
2021/09/09 07:51:23;;;;;;;16.50;11.00;;;;;;;18.05;77.62;100511.48;110657;1198;75568;-74
2021/09/09 07:53:50;;;;;;;13.30;8.70;;;;;;;18.19;77.75;100508.13;110585;1206;61887;-73
2021/09/09 07:56:17;;;;;;;12.70;8.30;;;;;;;18.33;77.10;100510.10;110679;1205;71499;-74
2021/09/09 07:58:48;;;;;;;15.30;8.10;;;;;;;18.49;76.71;100510.60;110619;1205;61882;-76
2021/09/09 08:01:20;;;;;;;12.60;8.30;;;;;;;18.62;75.64;100511.48;110536;1206;61794;-75
2021/09/09 08:03:47;;;;;;;13.40;8.50;;;;;;;18.73;74.18;100509.93;110787;1206;75338;-73
2021/09/09 08:06:14;;;;;;;16.50;9.90;;;;;;;18.81;72.87;100507.64;110822;1206;69949;-74
2021/09/09 08:08:42;;;;;;;11.50;6.70;;;;;;;18.94;73.22;100511.23;110787;1205;72522;-74
2021/09/09 08:11:09;;;;;;;15.80;8.70;;;;;;;19.09;73.26;100516.51;110688;1206;61931;-74
2021/09/09 08:13:35;;;;;;;11.30;7.50;;;;;;;19.24;71.90;100520.98;110662;1206;61893;-73
2021/09/09 08:16:02;;;;;;;14.30;8.90;;;;;;;19.36;71.45;100523.11;110489;1206;76309;-75
2021/09/09 08:18:29;;;;;;;13.70;8.70;;;;;;;19.49;71.38;100522.39;110882;1200;71138;-76
2021/09/09 08:20:56;;;;;;;14.70;9.60;;;;;;;19.62;70.48;100517.38;110491;1206;73798;-76
2021/09/09 08:23:23;;;;;;;12.90;8.40;;;;;;;19.76;70.86;100518.10;110461;1206;61877;-76
2021/09/09 08:25:51;;;;;;;10.80;7.90;;;;;;;19.93;70.72;100516.65;110506;1206;61893;-75
2021/09/09 08:28:18;;;;;;;11.40;8.40;;;;;;;20.07;68.94;100515.50;110704;1206;76532;-74
2021/09/09 08:30:45;;;;;;;11.20;7.10;;;;;;;20.20;69.02;100518.05;110818;1206;72046;-74
2021/09/09 08:33:13;;;;;;;16.50;8.90;;;;;;;20.36;67.78;100516.64;110808;1206;74013;-74
2021/09/09 08:35:43;;;;;;;13.30;8.50;;;;;;;20.52;67.90;100509.84;110866;1205;61868;-74
2021/09/09 08:38:10;;;;;;;12.40;8.10;;;;;;;20.71;67.60;100507.69;110773;1205;61965;-75
2021/09/09 08:40:38;;;;;;;17.60;11.50;;;;;;;20.88;67.41;100506.63;110796;1206;75430;-74
2021/09/09 08:43:06;;;;;;;12.20;8.30;;;;;;;21.05;66.67;100504.13;110950;1199;70969;-74
2021/09/09 08:45:34;;;;;;;11.10;8.20;;;;;;;21.23;65.87;100503.86;110754;1200;73818;-74
2021/09/09 08:48:03;;;;;;;8.10;5.80;;;;;;;21.40;64.90;100500.05;110841;1206;61885;-74
2021/09/09 08:50:32;;;;;;;12.40;7.40;;;;;;;21.52;61.91;100498.98;111604;1206;61873;-74
2021/09/09 08:53:00;;;;;;;10.90;6.90;;;;;;;21.63;62.01;100497.45;110951;1205;76642;-73
2021/09/09 08:55:27;;;;;;;13.20;8.70;;;;;;;21.76;61.12;100494.30;111177;1205;72011;-74
2021/09/09 08:57:56;;;;;;;11.50;6.90;;;;;;;21.91;62.09;100495.33;110881;1205;73751;-75
2021/09/09 09:00:23;;;;;;;11.30;6.00;;;;;;;22.10;61.37;100491.55;110894;1199;61902;-75
2021/09/09 09:02:54;;;;;;;11.00;6.30;;;;;;;22.26;60.58;100488.59;110855;1205;63023;-74
2021/09/09 09:05:22;;;;;;;12.10;7.20;;;;;;;22.44;59.33;100486.02;110820;1205;75365;-74
2021/09/09 09:08:04;;;;;;;11.70;7.20;;;;;;;22.55;58.51;100485.63;110823;1201;72536;-74
2021/09/09 09:10:33;;;;;;;8.00;5.10;;;;;;;22.66;57.48;100485.05;110751;1206;72812;-75
2021/09/09 09:13:00;;;;;;;7.90;6.10;;;;;;;22.76;57.77;100484.95;110866;1206;62229;-73
2021/09/09 09:15:29;;;;;;;10.40;7.00;;;;;;;22.89;57.94;100485.35;110804;1205;61822;-74
2021/09/09 09:18:01;;;;;;;8.00;5.60;;;;;;;23.04;57.24;100479.66;110791;1205;76528;-74
2021/09/09 09:20:42;;;;;;;8.70;5.30;;;;;;;23.17;56.49;100478.60;110955;1205;72356;-73
2021/09/09 09:23:19;;;;;;;7.10;4.50;;;;;;;23.31;55.67;100480.38;110803;1206;72259;-76
2021/09/09 09:25:59;;;;;;;10.50;5.90;;;;;;;23.45;54.95;100477.61;110713;1199;61872;-78
2021/09/09 09:28:47;;;;;;;9.90;5.70;;;;;;;23.60;54.96;100473.97;110854;1206;61896;-78
2021/09/09 09:31:28;;;;;;;7.60;5.50;;;;;;;23.73;54.87;100470.76;110762;1206;76542;-77
2021/09/09 09:34:01;;;;;;;8.30;5.60;;;;;;;23.87;53.81;100470.42;110833;1205;72183;-78
2021/09/09 09:36:36;;;;;;;9.70;4.80;;;;;;;23.98;52.72;100468.91;110814;1206;72484;-79
2021/09/09 09:39:19;;;;;;;6.80;5.30;;;;;;;24.12;52.66;100468.00;110794;1206;62002;-77
2021/09/09 09:41:52;;;;;;;8.40;5.10;;;;;;;24.20;52.32;100464.10;110779;1200;61951;-79
2021/09/09 09:44:27;;;;;;;7.00;4.90;;;;;;;24.33;53.18;100461.42;110839;1200;75297;-77
2021/09/09 09:47:25;;;;;;;7.60;4.80;;;;;;;24.51;52.62;100456.08;110859;1200;70959;-78
2021/09/09 09:49:55;;;;;;;7.40;4.60;;;;;;;24.65;51.58;100456.81;111012;1205;73001;-78
2021/09/09 09:52:25;;;;;;;5.80;4.50;;;;;;;24.75;51.17;100455.69;110868;1199;62326;-77
2021/09/09 09:54:57;;;;;;;6.70;5.10;;;;;;;24.86;51.05;100449.86;110826;1206;61860;-79
2021/09/09 09:57:26;;;;;;;5.90;4.80;;;;;;;24.97;50.98;100447.55;110870;1205;76392;-78
2021/09/09 09:59:53;;;;;;;7.80;5.00;;;;;;;25.13;50.97;100448.35;110890;1205;70824;-80
2021/09/09 10:02:19;;;;;;;6.30;4.20;;;;;;;25.27;48.98;100447.45;111033;1205;73777;-78
2021/09/09 10:04:49;;;;;;;5.00;3.70;;;;;;;25.37;48.09;100446.95;110735;1206;62719;-78
2021/09/09 10:07:16;;;;;;;10.30;4.60;;;;;;;25.49;48.69;100441.94;110690;1206;61894;-76
2021/09/09 10:09:44;;;;;;;141.80;12.70;;;;;;;25.62;47.65;100442.83;110757;1206;75278;-77
2021/09/09 10:12:13;;;;;;;8.00;4.50;;;;;;;25.72;47.20;100436.59;110697;1206;72024;-77
2021/09/09 10:14:45;;;;;;;9.00;4.50;;;;;;;25.81;46.99;100434.83;110567;1199;73541;-78
2021/09/09 10:17:16;;;;;;;8.60;5.20;;;;;;;25.90;47.24;100435.92;110751;1205;61997;-77
2021/09/09 10:19:42;;;;;;;7.30;4.70;;;;;;;25.95;46.77;100427.64;110717;1205;61882;-77
2021/09/09 10:22:14;;;;;;;7.40;4.10;;;;;;;26.02;47.90;100426.71;110773;1205;77039;-77
2021/09/09 10:24:43;;;;;;;8.50;5.60;;;;;;;26.13;47.66;100429.33;110624;1206;70989;-79
2021/09/09 10:27:27;;;;;;;5.80;4.70;;;;;;;26.26;46.27;100427.75;110686;1205;72686;-76
2021/09/09 10:29:59;;;;;;;7.20;5.10;;;;;;;26.30;44.74;100427.38;110732;1206;61897;-77
2021/09/09 10:32:29;;;;;;;5.80;4.10;;;;;;;26.32;44.51;100430.46;110749;1206;61775;-77
2021/09/09 10:35:14;;;;;;;5.80;4.40;;;;;;;26.35;44.64;100423.58;110620;1205;76424;-77
2021/09/09 10:37:45;;;;;;;8.30;4.30;;;;;;;26.42;45.08;100422.90;110569;1205;72483;-75
2021/09/09 10:40:30;;;;;;;5.30;4.30;;;;;;;26.53;45.06;100419.43;110638;1205;72692;-75
2021/09/09 10:43:11;;;;;;;8.70;4.50;;;;;;;26.69;44.77;100422.70;110694;1205;61999;-77
2021/09/09 10:45:42;;;;;;;8.70;4.90;;;;;;;26.80;44.23;100419.21;110706;1206;62000;-77
2021/09/09 10:48:14;;;;;;;7.20;4.90;;;;;;;26.87;43.57;100416.25;110652;1205;75500;-78
2021/09/09 10:50:58;;;;;;;7.40;4.70;;;;;;;26.96;43.64;100409.71;110617;1205;71094;-76
2021/09/09 10:53:42;;;;;;;7.80;4.50;;;;;;;27.07;44.54;100412.06;110596;1201;73916;-77
2021/09/09 10:56:16;;;;;;;6.30;4.70;;;;;;;27.17;43.91;100415.13;110420;1200;61810;-75
2021/09/09 10:58:43;;;;;;;7.10;4.50;;;;;;;27.28;43.50;100415.13;110750;1206;62827;-76
2021/09/09 11:01:11;;;;;;;4.90;4.10;;;;;;;27.38;42.63;100418.43;110678;1206;77179;-75
2021/09/09 11:03:45;;;;;;;8.30;5.40;;;;;;;27.42;42.46;100413.95;110844;1205;70996;-76
2021/09/09 11:06:13;;;;;;;;;;;;;;;27.50;42.81;100408.06;110789;1205;72569;-76
2021/09/09 11:08:42;;;;;;;6.90;4.30;;;;;;;27.62;42.80;100407.81;110421;1206;61853;-77